Time;durP1;ratioP1;P1;durP2;ratioP2;P2;SDS_P1;SDS_P2;PMS_P1;PMS_P2;Temp;Humidity;BMP_temperature;BMP_pressure;BME280_temperature;BME280_humidity;BME280_pressure;Samples;Min_cycle;Max_cycle;Signal;HPM_P1;HPM_P2
2023/05/24 00:00:21;;;;;;;;;;;10.40;80.00;;;;;;5007535;28;19928;-78
2023/05/24 00:02:48;;;;;;;;;;;10.40;80.20;;;;;;5003996;28;20321;-77
2023/05/24 00:05:15;;;;;;;;;;;10.40;80.30;;;;;;5004257;28;19925;-78
2023/05/24 00:07:42;;;;;;;;;;;10.40;80.00;;;;;;4984452;28;19925;-78
2023/05/24 00:10:09;;;;;;;;;;;10.40;79.50;;;;;;5004959;28;19979;-77
2023/05/24 00:12:36;;;;;;;;;;;10.40;79.90;;;;;;5003668;28;19957;-78
2023/05/24 00:15:03;;;;;;;;;;;10.30;80.00;;;;;;5003213;28;19938;-78
2023/05/24 00:17:29;;;;;;;;;;;10.30;80.90;;;;;;5004056;28;19930;-78
2023/05/24 00:19:57;;;;;;;;;;;10.30;80.30;;;;;;5012194;28;19996;-78
2023/05/24 00:22:23;;;;;;;;;;;10.30;80.40;;;;;;4989737;28;20020;-78
2023/05/24 00:24:50;;;;;;;;;;;10.30;80.10;;;;;;5005110;28;19929;-78
2023/05/24 00:27:17;;;;;;;;;;;10.30;80.30;;;;;;5005746;28;20015;-77
2023/05/24 00:29:44;;;;;;;;;;;10.30;80.50;;;;;;4988280;28;19967;-78
2023/05/24 00:32:10;;;;;;;;;;;10.30;80.60;;;;;;4988266;28;20007;-78
2023/05/24 00:34:37;;;;;;;;;;;10.30;80.90;;;;;;5004838;28;20368;-78
2023/05/24 00:37:04;;;;;;;;;;;10.20;80.90;;;;;;5006255;28;19931;-77
2023/05/24 00:39:31;;;;;;;;;;;10.20;80.30;;;;;;5008798;28;19937;-77
2023/05/24 00:41:57;;;;;;;;;;;10.20;80.50;;;;;;4986281;28;20347;-78
2023/05/24 00:44:24;;;;;;;;;;;10.20;80.40;;;;;;5000501;28;19925;-77
2023/05/24 00:46:51;;;;;;;;;;;10.20;80.60;;;;;;4999560;28;19956;-78
2023/05/24 00:49:18;;;;;;;;;;;10.10;81.10;;;;;;4986424;28;20020;-77
2023/05/24 00:51:45;;;;;;;;;;;10.10;80.40;;;;;;5005996;28;20011;-78
2023/05/24 00:54:13;;;;;;;;;;;10.10;80.70;;;;;;5004846;28;19925;-78
2023/05/24 00:56:41;;;;;;;;;;;10.10;80.80;;;;;;4999926;28;20374;-78
2023/05/24 00:59:08;;;;;;;;;;;10.10;81.00;;;;;;5003812;28;19925;-78
2023/05/24 01:01:36;;;;;;;;;;;10.10;80.70;;;;;;4983492;28;19991;-78
2023/05/24 01:04:04;;;;;;;;;;;10.10;80.50;;;;;;4984576;28;19937;-77
2023/05/24 01:06:35;;;;;;;;;;;10.10;81.00;;;;;;4986467;28;19995;-77
2023/05/24 01:09:16;;;;;;;;;;;10.10;80.60;;;;;;4985615;28;20366;-77
2023/05/24 01:12:01;;;;;;;;;;;10.10;81.20;;;;;;5003023;28;19924;-78
2023/05/24 01:14:34;;;;;;;;;;;10.10;80.70;;;;;;5003144;28;19925;-78
2023/05/24 01:17:01;;;;;;;;;;;10.10;80.80;;;;;;5011646;28;19925;-77
2023/05/24 01:19:29;;;;;;;;;;;10.10;81.20;;;;;;4984932;28;19991;-77
2023/05/24 01:22:05;;;;;;;;;;;10.10;81.00;;;;;;5007325;28;19929;-78
2023/05/24 01:24:41;;;;;;;;;;;10.00;81.00;;;;;;5002994;28;20365;-77
2023/05/24 01:27:10;;;;;;;;;;;10.00;80.90;;;;;;4997008;28;19925;-77
2023/05/24 01:29:37;;;;;;;;;;;10.00;81.80;;;;;;4993258;28;19935;-78
2023/05/24 01:32:04;;;;;;;;;;;10.00;81.90;;;;;;5006515;28;19957;-78
2023/05/24 01:34:31;;;;;;;;;;;10.00;82.10;;;;;;5008432;28;19981;-78
2023/05/24 01:36:57;;;;;;;;;;;10.00;81.90;;;;;;5006726;28;20681;-78
2023/05/24 01:39:26;;;;;;;;;;;10.00;82.40;;;;;;4989919;28;19925;-78
2023/05/24 01:42:06;;;;;;;;;;;9.90;82.60;;;;;;5007722;28;19935;-78
2023/05/24 01:44:46;;;;;;;;;;;9.90;82.40;;;;;;5003490;28;19925;-78
2023/05/24 01:47:22;;;;;;;;;;;9.90;82.40;;;;;;4988799;28;19925;-78
2023/05/24 01:49:50;;;;;;;;;;;9.90;82.00;;;;;;4988110;28;19926;-78
2023/05/24 01:52:18;;;;;;;;;;;9.90;83.00;;;;;;5006965;28;19976;-78
2023/05/24 01:54:50;;;;;;;;;;;9.90;83.30;;;;;;5007562;28;20039;-78
2023/05/24 01:57:21;;;;;;;;;;;9.90;82.90;;;;;;5006637;28;19932;-77
2023/05/24 01:59:48;;;;;;;;;;;9.80;83.40;;;;;;4981173;28;20317;-77
2023/05/24 02:02:15;;;;;;;;;;;9.90;84.80;;;;;;5006194;28;19925;-78
2023/05/24 02:04:42;;;;;;;;;;;9.90;85.00;;;;;;5006870;28;19925;-77
2023/05/24 02:07:09;;;;;;;;;;;9.80;86.10;;;;;;4989915;28;20632;-78
2023/05/24 02:09:36;;;;;;;;;;;9.80;85.80;;;;;;5008054;28;19925;-78
2023/05/24 02:12:02;;;;;;;;;;;9.80;87.10;;;;;;4993720;28;19932;-77
2023/05/24 02:14:30;;;;;;;;;;;9.80;86.90;;;;;;5006930;28;20011;-78
2023/05/24 02:16:57;;;;;;;;;;;9.70;87.00;;;;;;4986804;28;20378;-78
2023/05/24 02:19:25;;;;;;;;;;;9.70;87.20;;;;;;5007241;28;20008;-77
2023/05/24 02:21:52;;;;;;;;;;;9.60;87.70;;;;;;5006666;28;20420;-77
2023/05/24 02:24:18;;;;;;;;;;;9.60;87.90;;;;;;5008465;28;19931;-77
2023/05/24 02:26:45;;;;;;;;;;;9.60;89.00;;;;;;5011943;28;19925;-77
2023/05/24 02:29:12;;;;;;;;;;;9.60;89.70;;;;;;4990785;28;19972;-77
2023/05/24 02:31:39;;;;;;;;;;;9.60;90.70;;;;;;5001766;28;20053;-78
2023/05/24 02:34:06;;;;;;;;;;;9.60;90.70;;;;;;5007041;28;19925;-77
2023/05/24 02:36:35;;;;;;;;;;;9.50;91.30;;;;;;4990150;28;19925;-78
2023/05/24 02:39:02;;;;;;;;;;;9.50;91.40;;;;;;5008589;28;19932;-77
2023/05/24 02:41:29;;;;;;;;;;;9.40;91.10;;;;;;5006642;28;19925;-77
2023/05/24 02:43:56;;;;;;;;;;;9.40;92.10;;;;;;4986937;28;20477;-78
2023/05/24 02:46:23;;;;;;;;;;;9.40;92.90;;;;;;5009265;28;20440;-77
2023/05/24 02:48:50;;;;;;;;;;;9.40;92.80;;;;;;4989389;28;20590;-77
2023/05/24 02:51:18;;;;;;;;;;;9.40;93.50;;;;;;5004567;28;20049;-78
2023/05/24 02:53:45;;;;;;;;;;;9.40;93.90;;;;;;5005100;28;19936;-78
2023/05/24 02:56:12;;;;;;;;;;;9.40;93.60;;;;;;5006165;28;20312;-78
2023/05/24 02:58:39;;;;;;;;;;;9.40;94.00;;;;;;4986086;28;20020;-77
2023/05/24 03:01:07;;;;;;;;;;;9.40;94.20;;;;;;4987334;28;19975;-78
2023/05/24 03:03:34;;;;;;;;;;;9.40;94.50;;;;;;5000646;28;19975;-77
2023/05/24 03:06:01;;;;;;;;;;;9.40;95.10;;;;;;5003768;28;19935;-78
2023/05/24 03:08:27;;;;;;;;;;;9.40;95.50;;;;;;5006277;28;20233;-78
2023/05/24 03:10:54;;;;;;;;;;;9.40;94.30;;;;;;5001638;28;19931;-79
2023/05/24 03:13:21;;;;;;;;;;;9.30;94.20;;;;;;4984545;28;20032;-79
2023/05/24 03:15:48;;;;;;;;;;;9.30;95.10;;;;;;4999743;28;19925;-80
2023/05/24 03:18:14;;;;;;;;;;;9.30;95.40;;;;;;5000202;28;19925;-80
2023/05/24 03:20:41;;;;;;;;;;;9.30;94.90;;;;;;5001513;28;20023;-79
2023/05/24 03:23:08;;;;;;;;;;;9.30;96.00;;;;;;4983003;28;20413;-79
2023/05/24 03:25:35;;;;;;;;;;;9.30;96.30;;;;;;4998477;28;19968;-79
2023/05/24 03:28:02;;;;;;;;;;;9.30;96.20;;;;;;4999438;28;19995;-79
2023/05/24 03:30:28;;;;;;;;;;;9.30;96.90;;;;;;4998872;28;19925;-79
2023/05/24 03:32:55;;;;;;;;;;;9.30;96.80;;;;;;4996943;28;19932;-80
2023/05/24 03:35:22;;;;;;;;;;;9.30;96.70;;;;;;4999175;28;19925;-82
2023/05/24 03:37:49;;;;;;;;;;;9.30;97.00;;;;;;4979060;28;19921;-79
2023/05/24 03:40:16;;;;;;;;;;;9.30;96.80;;;;;;5000189;28;20272;-79
2023/05/24 03:42:42;;;;;;;;;;;9.30;96.40;;;;;;4979881;28;19995;-79
2023/05/24 03:45:09;;;;;;;;;;;9.20;96.50;;;;;;4985938;28;20028;-80
2023/05/24 03:47:36;;;;;;;;;;;9.20;97.50;;;;;;4998188;28;19972;-80
2023/05/24 03:50:03;;;;;;;;;;;9.20;96.90;;;;;;5000580;28;19925;-79
2023/05/24 03:52:30;;;;;;;;;;;9.20;96.90;;;;;;4998832;28;19932;-79
2023/05/24 03:54:57;;;;;;;;;;;9.20;97.80;;;;;;4999547;28;20312;-78
2023/05/24 03:57:23;;;;;;;;;;;9.20;97.10;;;;;;5001124;28;19937;-80
2023/05/24 03:59:50;;;;;;;;;;;9.20;97.30;;;;;;4999948;28;20011;-78
2023/05/24 04:02:17;;;;;;;;;;;9.20;98.50;;;;;;4985597;28;19925;-78
2023/05/24 04:04:44;;;;;;;;;;;9.20;98.00;;;;;;4979499;28;20374;-78
2023/05/24 04:07:12;;;;;;;;;;;9.20;98.40;;;;;;5002077;28;19935;-78
2023/05/24 04:09:39;;;;;;;;;;;9.20;98.90;;;;;;4983729;28;20020;-78
2023/05/24 04:12:06;;;;;;;;;;;9.20;98.60;;;;;;4996947;28;20103;-77
2023/05/24 04:14:33;;;;;;;;;;;9.20;98.60;;;;;;5012296;28;19948;-77
2023/05/24 04:17:03;;;;;;;;;;;9.20;98.10;;;;;;4991972;28;19928;-77
2023/05/24 04:19:30;;;;;;;;;;;9.20;98.60;;;;;;4982153;28;20424;-78
2023/05/24 04:21:57;;;;;;;;;;;9.20;98.60;;;;;;5000981;28;20440;-78
2023/05/24 04:24:23;;;;;;;;;;;9.20;98.00;;;;;;4977857;28;19925;-78
2023/05/24 04:26:50;;;;;;;;;;;9.10;98.40;;;;;;4999778;28;20362;-78
2023/05/24 04:29:18;;;;;;;;;;;9.10;98.70;;;;;;4983884;28;19936;-78
2023/05/24 04:31:47;;;;;;;;;;;9.20;98.80;;;;;;4998101;28;19940;-78
2023/05/24 04:34:14;;;;;;;;;;;9.20;99.30;;;;;;4997707;28;20032;-78
2023/05/24 04:36:41;;;;;;;;;;;9.20;99.40;;;;;;4987966;28;19932;-78
2023/05/24 04:39:08;;;;;;;;;;;9.30;99.70;;;;;;5000404;28;20386;-79
2023/05/24 04:41:36;;;;;;;;;;;9.30;99.20;;;;;;4997341;28;20004;-78
2023/05/24 04:44:02;;;;;;;;;;;9.30;99.80;;;;;;5000373;28;20247;-78
2023/05/24 04:46:30;;;;;;;;;;;9.40;99.90;;;;;;5001600;28;19928;-78
2023/05/24 04:48:57;;;;;;;;;;;9.50;99.80;;;;;;4981521;28;20160;-78
2023/05/24 04:51:23;;;;;;;;;;;9.50;99.40;;;;;;5000615;28;20039;-78
2023/05/24 04:53:50;;;;;;;;;;;9.50;98.50;;;;;;5000069;28;19971;-79
2023/05/24 04:56:18;;;;;;;;;;;9.40;98.70;;;;;;4980897;28;20185;-79
2023/05/24 04:58:45;;;;;;;;;;;9.50;99.00;;;;;;4999559;28;20409;-79
2023/05/24 05:01:11;;;;;;;;;;;9.50;98.50;;;;;;4996964;28;20699;-78
2023/05/24 05:03:38;;;;;;;;;;;9.40;97.70;;;;;;4998737;28;19925;-79
2023/05/24 05:06:05;;;;;;;;;;;9.40;98.00;;;;;;5006225;28;19928;-79
2023/05/24 05:08:32;;;;;;;;;;;9.40;97.60;;;;;;5004352;28;20019;-78
2023/05/24 05:10:59;;;;;;;;;;;9.40;98.20;;;;;;5004587;28;20340;-79
2023/05/24 05:13:25;;;;;;;;;;;9.40;98.80;;;;;;4985985;28;19952;-78
2023/05/24 05:15:52;;;;;;;;;;;9.40;97.90;;;;;;5009682;28;19929;-79
2023/05/24 05:18:19;;;;;;;;;;;9.40;97.30;;;;;;5006209;28;20342;-79
2023/05/24 05:20:46;;;;;;;;;;;9.40;98.30;;;;;;5005741;28;20353;-78
2023/05/24 05:23:13;;;;;;;;;;;9.50;98.80;;;;;;5004715;28;19925;-80
2023/05/24 05:25:39;;;;;;;;;;;9.60;98.10;;;;;;5007556;28;19983;-81
2023/05/24 05:28:06;;;;;;;;;;;9.70;98.80;;;;;;5005133;28;19926;-78
2023/05/24 05:30:33;;;;;;;;;;;9.80;98.50;;;;;;4999491;28;20324;-80
2023/05/24 05:33:00;;;;;;;;;;;9.90;99.00;;;;;;4987366;28;20028;-76
2023/05/24 05:35:27;;;;;;;;;;;10.00;98.60;;;;;;5005949;28;20468;-77
2023/05/24 05:37:53;;;;;;;;;;;10.10;97.70;;;;;;4998414;28;20674;-77
2023/05/24 05:40:20;;;;;;;;;;;10.20;96.80;;;;;;4984333;28;19929;-77
2023/05/24 05:42:47;;;;;;;;;;;10.30;95.90;;;;;;4986754;28;19984;-77
2023/05/24 05:45:14;;;;;;;;;;;10.20;94.90;;;;;;4999833;28;19979;-78
2023/05/24 05:47:42;;;;;;;;;;;10.40;95.90;;;;;;5003048;28;19968;-79
2023/05/24 05:50:09;;;;;;;;;;;10.50;95.60;;;;;;5005342;28;19973;-78
2023/05/24 05:52:35;;;;;;;;;;;10.60;96.10;;;;;;5007747;28;19975;-78
2023/05/24 05:55:02;;;;;;;;;;;10.60;94.20;;;;;;4995294;28;19960;-79
2023/05/24 05:57:29;;;;;;;;;;;10.60;93.90;;;;;;5006021;28;19925;-78
2023/05/24 05:59:56;;;;;;;;;;;10.80;94.50;;;;;;5003458;28;20350;-79
2023/05/24 06:02:22;;;;;;;;;;;10.80;93.40;;;;;;4992695;28;19980;-79
2023/05/24 06:04:49;;;;;;;;;;;10.90;92.00;;;;;;5008688;28;19969;-78
2023/05/24 06:07:16;;;;;;;;;;;11.00;94.20;;;;;;5000167;28;19925;-79
2023/05/24 06:09:43;;;;;;;;;;;11.30;94.10;;;;;;4988621;28;20362;-79
2023/05/24 06:12:10;;;;;;;;;;;11.40;92.10;;;;;;5009146;28;19933;-79
2023/05/24 06:14:37;;;;;;;;;;;11.40;92.20;;;;;;4999480;28;19936;-79
2023/05/24 06:17:04;;;;;;;;;;;11.40;91.30;;;;;;5002087;28;20076;-79
2023/05/24 06:19:31;;;;;;;;;;;11.40;91.30;;;;;;4990687;28;19925;-79
2023/05/24 06:21:58;;;;;;;;;;;11.40;88.70;;;;;;5013421;28;19933;-79
2023/05/24 06:24:27;;;;;;;;;;;11.30;90.10;;;;;;4984775;28;20009;-79
2023/05/24 06:26:54;;;;;;;;;;;11.40;90.40;;;;;;4993437;28;19981;-79
2023/05/24 06:29:21;;;;;;;;;;;11.50;90.40;;;;;;5008481;28;19968;-79
2023/05/24 06:31:48;;;;;;;;;;;11.60;88.60;;;;;;5016242;28;19931;-79
2023/05/24 06:34:16;;;;;;;;;;;11.70;90.30;;;;;;5007964;28;19929;-79
2023/05/24 06:36:46;;;;;;;;;;;11.80;89.30;;;;;;5005898;28;19973;-79
2023/05/24 06:39:13;;;;;;;;;;;11.90;88.90;;;;;;4989590;28;19929;-79
2023/05/24 06:41:41;;;;;;;;;;;12.00;87.80;;;;;;5005504;28;19971;-79
2023/05/24 06:44:08;;;;;;;;;;;12.20;89.30;;;;;;4991392;28;20291;-78
2023/05/24 06:46:35;;;;;;;;;;;12.20;86.90;;;;;;5005450;28;19932;-78
2023/05/24 06:49:02;;;;;;;;;;;12.40;86.10;;;;;;5005324;28;20081;-79
2023/05/24 06:51:29;;;;;;;;;;;12.30;86.40;;;;;;5009978;28;19931;-78
2023/05/24 06:53:56;;;;;;;;;;;12.50;87.50;;;;;;4994895;28;19937;-78
2023/05/24 06:56:23;;;;;;;;;;;12.70;86.70;;;;;;4987596;28;20348;-79
2023/05/24 06:58:49;;;;;;;;;;;12.90;86.30;;;;;;5004639;28;19968;-79
2023/05/24 07:01:17;;;;;;;;;;;13.00;84.90;;;;;;5004620;28;20016;-79
2023/05/24 07:03:44;;;;;;;;;;;13.00;83.10;;;;;;4988166;28;19925;-79
2023/05/24 07:06:12;;;;;;;;;;;12.90;82.60;;;;;;5000598;28;19960;-79
2023/05/24 07:08:40;;;;;;;;;;;13.00;83.50;;;;;;5004250;28;20367;-79
2023/05/24 07:11:08;;;;;;;;;;;12.90;82.00;;;;;;5003968;28;19972;-78
2023/05/24 07:13:35;;;;;;;;;;;12.80;83.80;;;;;;5000739;28;19929;-79
2023/05/24 07:16:01;;;;;;;;;;;12.80;83.20;;;;;;5004577;28;20338;-79
2023/05/24 07:18:29;;;;;;;;;;;12.90;83.10;;;;;;5005557;28;19991;-79
2023/05/24 07:20:55;;;;;;;;;;;13.10;81.40;;;;;;5004038;28;20020;-79
2023/05/24 07:23:22;;;;;;;;;;;13.00;81.20;;;;;;5005840;28;20026;-79
2023/05/24 07:25:49;;;;;;;;;;;13.20;81.50;;;;;;5003067;28;19933;-79
2023/05/24 07:28:18;;;;;;;;;;;13.30;81.10;;;;;;4986926;28;20020;-79
2023/05/24 07:30:45;;;;;;;;;;;13.40;81.00;;;;;;5009424;28;19996;-79
2023/05/24 07:33:12;;;;;;;;;;;13.30;81.20;;;;;;5007618;28;20361;-80
2023/05/24 07:35:40;;;;;;;;;;;13.20;81.70;;;;;;5002940;28;19925;-79
2023/05/24 07:38:07;;;;;;;;;;;13.40;80.60;;;;;;4979226;28;19925;-79
2023/05/24 07:40:34;;;;;;;;;;;13.40;81.10;;;;;;5006097;28;20046;-79
2023/05/24 07:43:00;;;;;;;;;;;13.50;80.80;;;;;;4996172;28;19964;-79
2023/05/24 07:45:30;;;;;;;;;;;13.40;80.30;;;;;;5005430;28;20136;-79
2023/05/24 07:47:57;;;;;;;;;;;13.50;80.20;;;;;;5005132;28;20441;-79
2023/05/24 07:50:24;;;;;;;;;;;13.50;79.80;;;;;;5000560;28;19932;-79
2023/05/24 07:52:50;;;;;;;;;;;13.60;81.70;;;;;;5002876;28;20330;-79
2023/05/24 07:55:17;;;;;;;;;;;13.90;81.50;;;;;;5006800;28;19932;-79
2023/05/24 07:57:44;;;;;;;;;;;14.70;80.00;;;;;;5001543;28;19926;-79
2023/05/24 08:00:13;;;;;;;;;;;15.40;77.00;;;;;;5005886;28;19925;-79
2023/05/24 08:02:41;;;;;;;;;;;16.20;76.50;;;;;;4986295;28;19932;-79
2023/05/24 08:05:10;;;;;;;;;;;16.60;71.60;;;;;;5004006;28;19925;-79
2023/05/24 08:07:37;;;;;;;;;;;16.70;72.00;;;;;;5002331;28;20771;-79
2023/05/24 08:10:04;;;;;;;;;;;17.50;70.20;;;;;;4980694;28;20012;-79
2023/05/24 08:12:31;;;;;;;;;;;18.40;66.30;;;;;;5004298;28;20011;-79
2023/05/24 08:14:58;;;;;;;;;;;18.20;63.80;;;;;;4989540;28;19931;-78
2023/05/24 08:17:25;;;;;;;;;;;18.00;63.00;;;;;;5003338;28;20397;-79
2023/05/24 08:19:52;;;;;;;;;;;17.50;63.30;;;;;;5005731;28;20785;-79
2023/05/24 08:22:19;;;;;;;;;;;17.10;66.40;;;;;;4992573;28;20320;-79
2023/05/24 08:24:46;;;;;;;;;;;16.60;66.80;;;;;;4987137;28;20444;-78
2023/05/24 08:27:16;;;;;;;;;;;16.20;66.80;;;;;;4991048;28;19931;-78
2023/05/24 08:29:42;;;;;;;;;;;16.00;67.30;;;;;;5006272;28;19926;-78
2023/05/24 08:32:09;;;;;;;;;;;15.90;68.00;;;;;;4986234;28;20424;-78
2023/05/24 08:34:37;;;;;;;;;;;16.10;69.60;;;;;;4987410;28;20336;-80
2023/05/24 08:37:04;;;;;;;;;;;16.90;69.00;;;;;;4986143;28;19968;-79
2023/05/24 08:39:30;;;;;;;;;;;17.70;67.70;;;;;;5003130;28;20015;-79
2023/05/24 08:41:58;;;;;;;;;;;18.40;64.00;;;;;;5004403;28;19925;-79
2023/05/24 08:44:52;;;;;;;;;;;18.40;61.30;;;;;;5008389;28;20020;-79
2023/05/24 08:47:19;;;;;;;;;;;17.90;60.90;;;;;;4990472;28;20372;-79
2023/05/24 08:49:47;;;;;;;;;;;17.20;60.90;;;;;;4991111;28;20689;-79
2023/05/24 08:52:14;;;;;;;;;;;16.80;61.60;;;;;;5007620;28;19936;-79
2023/05/24 08:54:41;;;;;;;;;;;16.50;64.30;;;;;;5007385;28;20020;-79
2023/05/24 08:57:10;;;;;;;;;;;16.50;64.00;;;;;;5006438;28;19968;-79
2023/05/24 08:59:40;;;;;;;;;;;16.40;64.80;;;;;;5007911;28;19940;-78
2023/05/24 09:02:12;;;;;;;;;;;16.20;65.20;;;;;;5012225;28;19929;-79
2023/05/24 09:04:40;;;;;;;;;;;16.00;65.00;;;;;;5007431;28;19925;-79
2023/05/24 09:07:07;;;;;;;;;;;16.10;66.60;;;;;;5007633;28;19925;-79
2023/05/24 09:09:36;;;;;;;;;;;16.40;67.50;;;;;;5008324;28;19955;-78
2023/05/24 09:12:03;;;;;;;;;;;17.00;65.20;;;;;;5010875;28;19925;-79
2023/05/24 09:14:31;;;;;;;;;;;17.40;64.10;;;;;;5007408;28;19931;-79
2023/05/24 09:16:58;;;;;;;;;;;17.40;61.90;;;;;;5011898;28;20457;-79
2023/05/24 09:19:26;;;;;;;;;;;17.40;61.70;;;;;;5006145;28;20441;-78
2023/05/24 09:21:53;;;;;;;;;;;17.20;62.00;;;;;;5006582;28;19932;-79
2023/05/24 09:24:22;;;;;;;;;;;16.90;62.60;;;;;;4990968;28;20007;-78
2023/05/24 09:26:49;;;;;;;;;;;16.60;64.90;;;;;;5009148;28;20426;-79
2023/05/24 09:29:20;;;;;;;;;;;16.40;66.20;;;;;;5004209;28;19977;-79
2023/05/24 09:31:47;;;;;;;;;;;16.10;67.20;;;;;;5014230;28;20040;-78
2023/05/24 09:34:15;;;;;;;;;;;16.10;67.40;;;;;;5006294;28;19929;-78
2023/05/24 09:36:44;;;;;;;;;;;16.00;67.20;;;;;;5006248;28;20197;-78
2023/05/24 09:39:11;;;;;;;;;;;16.00;67.70;;;;;;5008316;28;20016;-78
2023/05/24 09:41:42;;;;;;;;;;;15.90;66.70;;;;;;4998053;28;19929;-79
2023/05/24 09:44:11;;;;;;;;;;;15.70;67.90;;;;;;5015704;28;20381;-78
2023/05/24 09:46:38;;;;;;;;;;;15.80;68.70;;;;;;5007499;28;19925;-78
2023/05/24 09:49:08;;;;;;;;;;;15.70;67.40;;;;;;5006915;28;19925;-79
2023/05/24 09:51:38;;;;;;;;;;;15.80;68.00;;;;;;5007163;28;19925;-78
2023/05/24 09:54:05;;;;;;;;;;;16.50;68.30;;;;;;5009208;28;20346;-78
2023/05/24 09:56:32;;;;;;;;;;;17.50;67.60;;;;;;5011304;28;20027;-79
2023/05/24 09:59:04;;;;;;;;;;;18.50;62.50;;;;;;5007688;28;19931;-79
2023/05/24 10:01:32;;;;;;;;;;;18.70;61.00;;;;;;5006260;28;19975;-79
2023/05/24 10:04:01;;;;;;;;;;;18.70;60.60;;;;;;5009498;28;20362;-79
2023/05/24 10:06:33;;;;;;;;;;;19.10;57.80;;;;;;4999216;28;20361;-79
2023/05/24 10:09:01;;;;;;;;;;;19.10;58.40;;;;;;5007764;28;20394;-79
2023/05/24 10:11:28;;;;;;;;;;;19.10;55.90;;;;;;5008958;28;20378;-79
2023/05/24 10:13:54;;;;;;;;;;;19.40;55.50;;;;;;5007686;28;19925;-79
2023/05/24 10:16:21;;;;;;;;;;;19.20;56.20;;;;;;5008752;28;19925;-79
2023/05/24 10:18:49;;;;;;;;;;;19.20;55.80;;;;;;5004901;28;19939;-79
2023/05/24 10:21:18;;;;;;;;;;;18.80;55.30;;;;;;5002643;28;19925;-79
2023/05/24 10:23:49;;;;;;;;;;;18.60;54.80;;;;;;5001961;28;19932;-78
2023/05/24 10:26:16;;;;;;;;;;;18.70;57.90;;;;;;5003841;28;19926;-78
2023/05/24 10:28:46;;;;;;;;;;;19.00;55.70;;;;;;5002969;28;19979;-79
2023/05/24 10:31:15;;;;;;;;;;;19.80;54.60;;;;;;5000626;28;20366;-79
2023/05/24 10:33:44;;;;;;;;;;;20.40;52.90;;;;;;5006062;28;20309;-79
2023/05/24 10:36:12;;;;;;;;;;;20.80;50.60;;;;;;5006330;28;19964;-79
2023/05/24 10:38:39;;;;;;;;;;;21.40;52.30;;;;;;5006606;28;20392;-79
2023/05/24 10:41:07;;;;;;;;;;;21.60;49.90;;;;;;4988129;28;19925;-79
2023/05/24 10:43:34;;;;;;;;;;;21.40;49.70;;;;;;4987866;28;19929;-79
2023/05/24 10:46:02;;;;;;;;;;;21.30;51.40;;;;;;5004677;28;19929;-77
2023/05/24 10:48:29;;;;;;;;;;;22.10;52.30;;;;;;5004931;28;20283;-76
2023/05/24 10:50:56;;;;;;;;;;;22.30;48.30;;;;;;5005164;28;19925;-77
2023/05/24 10:53:26;;;;;;;;;;;22.40;48.00;;;;;;4997744;28;19925;-77
2023/05/24 10:55:52;;;;;;;;;;;22.70;44.90;;;;;;5006137;28;19925;-77
2023/05/24 10:58:19;;;;;;;;;;;22.50;47.10;;;;;;5004322;28;20247;-77
2023/05/24 11:00:49;;;;;;;;;;;22.60;46.60;;;;;;4989602;28;20030;-77
2023/05/24 11:03:22;;;;;;;;;;;23.10;45.90;;;;;;5003637;28;19925;-77
2023/05/24 11:05:51;;;;;;;;;;;22.90;44.60;;;;;;5002208;28;19925;-77
2023/05/24 11:08:22;;;;;;;;;;;23.00;42.00;;;;;;5004463;28;19964;-77
2023/05/24 11:10:49;;;;;;;;;;;22.50;42.70;;;;;;5008383;28;20020;-77
2023/05/24 11:13:17;;;;;;;;;;;22.20;44.90;;;;;;5007994;28;20403;-76
2023/05/24 11:15:50;;;;;;;;;;;21.50;46.20;;;;;;5007513;28;19960;-77
2023/05/24 11:18:20;;;;;;;;;;;21.50;46.70;;;;;;5006473;28;20355;-76
2023/05/24 11:20:48;;;;;;;;;;;21.20;47.10;;;;;;5003327;28;19932;-77
2023/05/24 11:23:15;;;;;;;;;;;21.00;48.20;;;;;;5004395;28;19931;-76
2023/05/24 11:25:43;;;;;;;;;;;20.90;48.50;;;;;;5006876;28;19925;-76
2023/05/24 11:28:11;;;;;;;;;;;20.60;50.10;;;;;;5003876;28;20422;-76
2023/05/24 11:30:47;;;;;;;;;;;21.00;50.70;;;;;;5007668;28;20197;-77
2023/05/24 11:33:17;;;;;;;;;;;21.50;51.00;;;;;;4992640;28;20766;-78
2023/05/24 11:35:45;;;;;;;;;;;21.60;48.20;;;;;;4976580;28;20337;-79
2023/05/24 11:38:12;;;;;;;;;;;21.60;50.00;;;;;;4976773;28;19929;-79
2023/05/24 11:40:43;;;;;;;;;;;21.60;50.30;;;;;;4988091;28;20048;-78
2023/05/24 11:43:19;;;;;;;;;;;22.00;49.30;;;;;;4976144;28;19929;-79
2023/05/24 11:45:49;;;;;;;;;;;22.30;45.90;;;;;;4975893;28;20384;-79
2023/05/24 11:48:17;;;;;;;;;;;22.60;47.70;;;;;;4989449;28;20303;-79
2023/05/24 11:50:46;;;;;;;;;;;22.70;45.30;;;;;;4972557;28;19929;-79
2023/05/24 11:53:17;;;;;;;;;;;22.60;46.30;;;;;;4962955;28;19930;-79
2023/05/24 11:55:44;;;;;;;;;;;22.20;46.20;;;;;;4978901;28;20825;-79
2023/05/24 11:58:24;;;;;;;;;;;21.90;46.00;;;;;;4941023;28;19980;-79
2023/05/24 12:00:51;;;;;;;;;;;21.50;46.60;;;;;;4958999;28;19957;-78
2023/05/24 12:03:18;;;;;;;;;;;20.90;47.20;;;;;;4956551;28;20096;-79
2023/05/24 12:05:45;;;;;;;;;;;20.90;47.60;;;;;;4941360;28;21110;-78
2023/05/24 12:08:14;;;;;;;;;;;20.70;48.80;;;;;;4944163;28;20588;-78
2023/05/24 12:10:41;;;;;;;;;;;20.60;48.50;;;;;;4903030;28;19930;-79
2023/05/24 12:13:21;;;;;;;;;;;20.40;48.30;;;;;;4958423;28;19925;-78
2023/05/24 12:15:48;;;;;;;;;;;20.20;50.10;;;;;;4959344;28;19925;-78
2023/05/24 12:18:23;;;;;;;;;;;20.30;49.80;;;;;;4964318;28;20270;-78
2023/05/24 12:20:50;;;;;;;;;;;20.50;50.90;;;;;;4960481;28;19930;-79
2023/05/24 12:23:19;;;;;;;;;;;20.60;48.60;;;;;;4955729;28;20694;-78
2023/05/24 12:25:46;;;;;;;;;;;20.50;48.60;;;;;;4957988;28;19930;-78
2023/05/24 12:28:12;;;;;;;;;;;20.40;48.60;;;;;;4984002;28;19971;-78
2023/05/24 12:30:43;;;;;;;;;;;20.20;48.40;;;;;;4968993;28;20389;-78
2023/05/24 12:33:10;;;;;;;;;;;20.10;48.70;;;;;;4974670;28;19952;-78
2023/05/24 12:35:41;;;;;;;;;;;19.90;48.40;;;;;;4979851;28;20494;-78
2023/05/24 12:38:09;;;;;;;;;;;19.70;49.40;;;;;;4978801;28;20021;-78
2023/05/24 12:40:36;;;;;;;;;;;19.60;49.60;;;;;;4985281;28;20001;-78
2023/05/24 12:43:03;;;;;;;;;;;19.60;51.50;;;;;;4978851;28;20011;-78
2023/05/24 12:45:30;;;;;;;;;;;20.20;50.40;;;;;;4973742;28;19991;-78
2023/05/24 12:47:58;;;;;;;;;;;20.50;49.40;;;;;;4974850;28;19932;-78
2023/05/24 12:50:25;;;;;;;;;;;20.70;47.60;;;;;;4994087;28;20191;-78
2023/05/24 12:52:52;;;;;;;;;;;20.60;47.80;;;;;;5000777;28;20378;-79
2023/05/24 12:55:22;;;;;;;;;;;20.50;46.80;;;;;;5001287;28;19932;-79
2023/05/24 12:57:52;;;;;;;;;;;19.90;49.70;;;;;;5000744;28;19964;-78
2023/05/24 13:00:21;;;;;;;;;;;19.90;49.10;;;;;;4998532;28;19925;-78
2023/05/24 13:02:48;;;;;;;;;;;20.00;48.30;;;;;;5000847;28;19933;-78
2023/05/24 13:05:15;;;;;;;;;;;19.80;48.80;;;;;;5002213;28;19945;-78
2023/05/24 13:07:43;;;;;;;;;;;19.50;50.30;;;;;;4998449;28;20027;-78
2023/05/24 13:10:10;;;;;;;;;;;19.70;50.50;;;;;;5000438;28;20523;-78
2023/05/24 13:12:38;;;;;;;;;;;20.10;51.90;;;;;;5005973;28;20847;-78
2023/05/24 13:15:04;;;;;;;;;;;20.40;51.40;;;;;;4986154;28;19933;-79
2023/05/24 13:17:31;;;;;;;;;;;20.90;49.50;;;;;;5002207;28;19925;-78
2023/05/24 13:20:00;;;;;;;;;;;21.30;50.30;;;;;;5014899;28;19982;-78
2023/05/24 13:22:27;;;;;;;;;;;21.70;49.30;;;;;;4978083;28;19929;-78
2023/05/24 13:24:54;;;;;;;;;;;22.00;48.10;;;;;;4986432;28;19956;-78
2023/05/24 13:27:20;;;;;;;;;;;22.30;45.20;;;;;;5008259;28;19928;-78
2023/05/24 13:29:48;;;;;;;;;;;22.30;47.20;;;;;;5001907;28;20049;-78
2023/05/24 13:32:27;;;;;;;;;;;22.40;46.10;;;;;;4987042;28;19926;-79
2023/05/24 13:34:53;;;;;;;;;;;22.70;45.80;;;;;;5013300;28;19929;-78
2023/05/24 13:37:20;;;;;;;;;;;22.90;45.20;;;;;;5007652;28;19925;-78
2023/05/24 13:39:48;;;;;;;;;;;23.00;45.70;;;;;;5011296;28;19925;-79
2023/05/24 13:42:16;;;;;;;;;;;22.70;43.70;;;;;;4991631;28;19925;-78
2023/05/24 13:44:42;;;;;;;;;;;22.20;45.60;;;;;;5007601;28;19932;-77
2023/05/24 13:47:09;;;;;;;;;;;22.60;44.70;;;;;;5004704;28;19936;-78
2023/05/24 13:49:36;;;;;;;;;;;22.70;46.90;;;;;;4995272;28;20471;-78
2023/05/24 13:52:03;;;;;;;;;;;23.00;47.10;;;;;;5013584;28;19926;-78
2023/05/24 13:54:30;;;;;;;;;;;23.10;46.30;;;;;;5006435;28;20399;-78
2023/05/24 13:56:58;;;;;;;;;;;23.30;44.60;;;;;;4993263;28;20352;-78
2023/05/24 13:59:25;;;;;;;;;;;23.00;43.60;;;;;;4995989;28;19948;-79
2023/05/24 14:01:52;;;;;;;;;;;23.10;44.50;;;;;;5000902;28;19968;-78
2023/05/24 14:04:19;;;;;;;;;;;23.50;44.10;;;;;;4999768;28;20456;-78
2023/05/24 14:06:46;;;;;;;;;;;23.60;43.50;;;;;;5003178;28;20397;-78
2023/05/24 14:09:14;;;;;;;;;;;23.70;44.30;;;;;;5005948;28;20300;-78
2023/05/24 14:11:40;;;;;;;;;;;23.60;43.10;;;;;;4991903;28;19956;-78
2023/05/24 14:14:10;;;;;;;;;;;24.00;42.00;;;;;;5009825;28;19925;-78
2023/05/24 14:16:40;;;;;;;;;;;23.20;43.70;;;;;;5003004;28;19929;-78
2023/05/24 14:19:07;;;;;;;;;;;23.20;43.00;;;;;;4983944;28;19959;-76
2023/05/24 14:21:33;;;;;;;;;;;23.20;42.60;;;;;;5003110;28;20019;-77
2023/05/24 14:24:00;;;;;;;;;;;23.00;42.00;;;;;;4997668;28;20011;-76